sensor_id;sensor_type;location;lat;lon;timestamp;pressure;altitude;pressure_sealevel;temperature;humidity
55113;BME280;41006;50.920;3.456;2023-09-30T00:00:21;77171.34;;;-147.36;100.00
55113;BME280;41006;50.920;3.456;2023-09-30T00:00:53;77177.41;;;-147.36;100.00
55113;BME280;41006;50.920;3.456;2023-09-30T00:01:23;77175.41;;;-147.36;100.00
55113;BME280;41006;50.920;3.456;2023-09-30T00:01:56;77191.56;;;-147.36;100.00
55113;BME280;41006;50.920;3.456;2023-09-30T00:02:26;77183.47;;;-147.36;100.00
55113;BME280;41006;50.920;3.456;2023-09-30T00:02:57;77185.50;;;-147.36;100.00
55113;BME280;41006;50.920;3.456;2023-09-30T00:03:27;77197.63;;;-147.36;100.00
55113;BME280;41006;50.920;3.456;2023-09-30T00:03:58;77187.53;;;-147.36;100.00
55113;BME280;41006;50.920;3.456;2023-09-30T00:04:30;77181.47;;;-147.36;100.00
55113;BME280;41006;50.920;3.456;2023-09-30T00:05:03;77181.47;;;-147.36;100.00
55113;BME280;41006;50.920;3.456;2023-09-30T00:05:33;77185.50;;;-147.36;100.00
55113;BME280;41006;50.920;3.456;2023-09-30T00:06:06;77187.53;;;-147.36;100.00
55113;BME280;41006;50.920;3.456;2023-09-30T00:06:39;77189.53;;;-147.36;100.00
55113;BME280;41006;50.920;3.456;2023-09-30T00:07:11;77183.47;;;-147.36;100.00
55113;BME280;41006;50.920;3.456;2023-09-30T00:07:44;77175.41;;;-147.36;100.00
55113;BME280;41006;50.920;3.456;2023-09-30T00:08:17;77175.41;;;-147.36;100.00
55113;BME280;41006;50.920;3.456;2023-09-30T00:08:49;77171.34;;;-147.36;100.00
55113;BME280;41006;50.920;3.456;2023-09-30T00:09:23;77175.41;;;-147.36;100.00
55113;BME280;41006;50.920;3.456;2023-09-30T00:09:54;77179.44;;;-147.36;100.00
55113;BME280;41006;50.920;3.456;2023-09-30T00:10:26;77171.34;;;-147.36;100.00
55113;BME280;41006;50.920;3.456;2023-09-30T00:10:57;77163.28;;;-147.36;100.00
55113;BME280;41006;50.920;3.456;2023-09-30T00:11:27;77171.34;;;-147.36;100.00
55113;BME280;41006;50.920;3.456;2023-09-30T00:11:57;77165.28;;;-147.36;100.00
55113;BME280;41006;50.920;3.456;2023-09-30T00:12:32;77159.22;;;-147.36;100.00
55113;BME280;41006;50.920;3.456;2023-09-30T00:13:04;77167.31;;;-147.36;100.00
55113;BME280;41006;50.920;3.456;2023-09-30T00:13:39;77163.28;;;-147.36;100.00
55113;BME280;41006;50.920;3.456;2023-09-30T00:14:12;77167.31;;;-147.36;100.00
55113;BME280;41006;50.920;3.456;2023-09-30T00:14:44;77167.31;;;-147.36;100.00
55113;BME280;41006;50.920;3.456;2023-09-30T00:15:18;77173.38;;;-147.36;100.00
55113;BME280;41006;50.920;3.456;2023-09-30T00:15:48;77179.44;;;-147.36;100.00
55113;BME280;41006;50.920;3.456;2023-09-30T00:16:21;77183.47;;;-147.36;100.00
55113;BME280;41006;50.920;3.456;2023-09-30T00:16:51;77183.47;;;-147.36;100.00
55113;BME280;41006;50.920;3.456;2023-09-30T00:17:24;77187.53;;;-147.36;100.00
55113;BME280;41006;50.920;3.456;2023-09-30T00:17:54;77201.66;;;-147.36;100.00
55113;BME280;41006;50.920;3.456;2023-09-30T00:18:25;77195.59;;;-147.36;100.00
55113;BME280;41006;50.920;3.456;2023-09-30T00:18:55;77199.66;;;-147.36;100.00
55113;BME280;41006;50.920;3.456;2023-09-30T00:19:28;77193.59;;;-147.36;100.00
55113;BME280;41006;50.920;3.456;2023-09-30T00:20:02;77187.53;;;-147.36;100.00
55113;BME280;41006;50.920;3.456;2023-09-30T00:20:34;77185.50;;;-147.36;100.00
55113;BME280;41006;50.920;3.456;2023-09-30T00:21:06;77185.50;;;-147.36;100.00
55113;BME280;41006;50.920;3.456;2023-09-30T00:21:40;77187.53;;;-147.36;100.00
55113;BME280;41006;50.920;3.456;2023-09-30T00:22:15;77173.38;;;-147.36;100.00
55113;BME280;41006;50.920;3.456;2023-09-30T00:22:45;77179.44;;;-147.36;100.00
55113;BME280;41006;50.920;3.456;2023-09-30T00:23:20;77167.31;;;-147.36;100.00
55113;BME280;41006;50.920;3.456;2023-09-30T00:23:53;77171.34;;;-147.36;100.00
55113;BME280;41006;50.920;3.456;2023-09-30T00:24:26;77169.34;;;-147.36;100.00
55113;BME280;41006;50.920;3.456;2023-09-30T00:24:57;77165.28;;;-147.36;100.00
55113;BME280;41006;50.920;3.456;2023-09-30T00:25:32;77159.22;;;-147.36;100.00
55113;BME280;41006;50.920;3.456;2023-09-30T00:26:02;77167.31;;;-147.36;100.00
55113;BME280;41006;50.920;3.456;2023-09-30T00:26:32;77169.34;;;-147.36;100.00
55113;BME280;41006;50.920;3.456;2023-09-30T00:27:03;77171.34;;;-147.36;100.00
55113;BME280;41006;50.920;3.456;2023-09-30T00:27:35;77181.47;;;-147.36;100.00
55113;BME280;41006;50.920;3.456;2023-09-30T00:28:05;77187.53;;;-147.36;100.00
55113;BME280;41006;50.920;3.456;2023-09-30T00:28:36;77193.59;;;-147.36;100.00
55113;BME280;41006;50.920;3.456;2023-09-30T00:29:09;77201.66;;;-147.36;100.00
55113;BME280;41006;50.920;3.456;2023-09-30T00:29:40;77199.66;;;-147.36;100.00
55113;BME280;41006;50.920;3.456;2023-09-30T00:30:10;77207.72;;;-147.36;100.00
55113;BME280;41006;50.920;3.456;2023-09-30T00:30:40;77207.72;;;-147.36;100.00
55113;BME280;41006;50.920;3.456;2023-09-30T00:31:11;77197.63;;;-147.36;100.00
55113;BME280;41006;50.920;3.456;2023-09-30T00:31:41;77203.69;;;-147.36;100.00
55113;BME280;41006;50.920;3.456;2023-09-30T00:32:14;77195.59;;;-147.36;100.00
55113;BME280;41006;50.920;3.456;2023-09-30T00:32:47;77195.59;;;-147.36;100.00
55113;BME280;41006;50.920;3.456;2023-09-30T00:33:17;77195.59;;;-147.36;100.00
55113;BME280;41006;50.920;3.456;2023-09-30T00:33:50;77195.59;;;-147.36;100.00
55113;BME280;41006;50.920;3.456;2023-09-30T00:34:20;77197.63;;;-147.36;100.00
55113;BME280;41006;50.920;3.456;2023-09-30T00:34:50;77195.59;;;-147.36;100.00
55113;BME280;41006;50.920;3.456;2023-09-30T00:35:22;77191.56;;;-147.36;100.00
55113;BME280;41006;50.920;3.456;2023-09-30T00:35:54;77191.56;;;-147.36;100.00
55113;BME280;41006;50.920;3.456;2023-09-30T00:36:29;77187.53;;;-147.36;100.00
55113;BME280;41006;50.920;3.456;2023-09-30T00:36:59;77185.50;;;-147.36;100.00
55113;BME280;41006;50.920;3.456;2023-09-30T00:37:32;77183.47;;;-147.36;100.00
55113;BME280;41006;50.920;3.456;2023-09-30T00:38:02;77179.44;;;-147.36;100.00
55113;BME280;41006;50.920;3.456;2023-09-30T00:38:33;77177.41;;;-147.36;100.00
55113;BME280;41006;50.920;3.456;2023-09-30T00:39:06;77177.41;;;-147.36;100.00
55113;BME280;41006;50.920;3.456;2023-09-30T00:39:37;77175.41;;;-147.36;100.00
55113;BME280;41006;50.920;3.456;2023-09-30T00:40:07;77175.41;;;-147.36;100.00
55113;BME280;41006;50.920;3.456;2023-09-30T00:40:50;77175.41;;;-147.36;100.00
55113;BME280;41006;50.920;3.456;2023-09-30T00:41:21;77179.44;;;-147.36;100.00
55113;BME280;41006;50.920;3.456;2023-09-30T00:41:51;77185.50;;;-147.36;100.00
55113;BME280;41006;50.920;3.456;2023-09-30T00:42:21;77193.59;;;-147.36;100.00
55113;BME280;41006;50.920;3.456;2023-09-30T00:42:51;77203.69;;;-147.36;100.00
55113;BME280;41006;50.920;3.456;2023-09-30T00:43:22;77211.78;;;-147.36;100.00
55113;BME280;41006;50.920;3.456;2023-09-30T00:43:52;77211.78;;;-147.36;100.00
55113;BME280;41006;50.920;3.456;2023-09-30T00:44:22;77209.75;;;-147.36;100.00
55113;BME280;41006;50.920;3.456;2023-09-30T00:44:52;77203.69;;;-147.36;100.00
55113;BME280;41006;50.920;3.456;2023-09-30T00:45:23;77199.66;;;-147.36;100.00
55113;BME280;41006;50.920;3.456;2023-09-30T00:45:56;77199.66;;;-147.36;100.00
55113;BME280;41006;50.920;3.456;2023-09-30T00:46:34;77189.53;;;-147.36;100.00
55113;BME280;41006;50.920;3.456;2023-09-30T00:47:11;77183.47;;;-147.36;100.00
55113;BME280;41006;50.920;3.456;2023-09-30T00:47:41;77185.50;;;-147.36;100.00
55113;BME280;41006;50.920;3.456;2023-09-30T00:48:12;77189.53;;;-147.36;100.00
55113;BME280;41006;50.920;3.456;2023-09-30T00:48:44;77177.41;;;-147.36;100.00
55113;BME280;41006;50.920;3.456;2023-09-30T00:49:18;77179.44;;;-147.36;100.00
55113;BME280;41006;50.920;3.456;2023-09-30T00:49:48;77171.34;;;-147.36;100.00
55113;BME280;41006;50.920;3.456;2023-09-30T00:50:21;77167.31;;;-147.36;100.00
55113;BME280;41006;50.920;3.456;2023-09-30T00:50:52;77175.41;;;-147.36;100.00
55113;BME280;41006;50.920;3.456;2023-09-30T00:51:24;77173.38;;;-147.36;100.00
55113;BME280;41006;50.920;3.456;2023-09-30T00:51:58;77169.34;;;-147.36;100.00
55113;BME280;41006;50.920;3.456;2023-09-30T00:52:29;77165.28;;;-147.36;100.00
55113;BME280;41006;50.920;3.456;2023-09-30T00:53:01;77155.19;;;-147.36;100.00
55113;BME280;41006;50.920;3.456;2023-09-30T00:53:32;77153.16;;;-147.36;100.00
55113;BME280;41006;50.920;3.456;2023-09-30T00:54:02;77159.22;;;-147.36;100.00
55113;BME280;41006;50.920;3.456;2023-09-30T00:54:33;77163.28;;;-147.36;100.00
55113;BME280;41006;50.920;3.456;2023-09-30T00:55:05;77167.31;;;-147.36;100.00
55113;BME280;41006;50.920;3.456;2023-09-30T00:55:38;77167.31;;;-147.36;100.00
55113;BME280;41006;50.920;3.456;2023-09-30T00:56:08;77169.34;;;-147.36;100.00
55113;BME280;41006;50.920;3.456;2023-09-30T00:56:45;77163.28;;;-147.36;100.00
55113;BME280;41006;50.920;3.456;2023-09-30T00:57:17;77165.28;;;-147.36;100.00
55113;BME280;41006;50.920;3.456;2023-09-30T00:57:48;77167.31;;;-147.36;100.00
55113;BME280;41006;50.920;3.456;2023-09-30T00:58:21;77167.31;;;-147.36;100.00
55113;BME280;41006;50.920;3.456;2023-09-30T00:58:56;77173.38;;;-147.36;100.00
55113;BME280;41006;50.920;3.456;2023-09-30T00:59:26;77175.41;;;-147.36;100.00
55113;BME280;41006;50.920;3.456;2023-09-30T00:59:57;77177.41;;;-147.36;100.00
55113;BME280;41006;50.920;3.456;2023-09-30T01:00:27;77183.47;;;-147.36;100.00
55113;BME280;41006;50.920;3.456;2023-09-30T01:00:58;77183.47;;;-147.36;100.00
55113;BME280;41006;50.920;3.456;2023-09-30T01:01:31;77199.66;;;-147.36;100.00
55113;BME280;41006;50.920;3.456;2023-09-30T01:02:02;77209.75;;;-147.36;100.00
55113;BME280;41006;50.920;3.456;2023-09-30T01:02:35;77209.75;;;-147.36;100.00
55113;BME280;41006;50.920;3.456;2023-09-30T01:03:07;77215.81;;;-147.36;100.00
55113;BME280;41006;50.920;3.456;2023-09-30T01:03:37;77219.84;;;-147.36;100.00
55113;BME280;41006;50.920;3.456;2023-09-30T01:04:12;77227.94;;;-147.36;100.00
55113;BME280;41006;50.920;3.456;2023-09-30T01:04:44;77240.06;;;-147.36;100.00
55113;BME280;41006;50.920;3.456;2023-09-30T01:05:17;77244.09;;;-147.36;100.00
55113;BME280;41006;50.920;3.456;2023-09-30T01:05:50;77242.09;;;-147.36;100.00
55113;BME280;41006;50.920;3.456;2023-09-30T01:06:20;77240.06;;;-147.36;100.00
55113;BME280;41006;50.920;3.456;2023-09-30T01:06:50;77236.03;;;-147.36;100.00
55113;BME280;41006;50.920;3.456;2023-09-30T01:07:21;77240.06;;;-147.36;100.00
55113;BME280;41006;50.920;3.456;2023-09-30T01:07:54;77248.16;;;-147.36;100.00
55113;BME280;41006;50.920;3.456;2023-09-30T01:08:26;77248.16;;;-147.36;100.00
55113;BME280;41006;50.920;3.456;2023-09-30T01:08:57;77252.19;;;-147.36;100.00
55113;BME280;41006;50.920;3.456;2023-09-30T01:09:27;77250.16;;;-147.36;100.00
55113;BME280;41006;50.920;3.456;2023-09-30T01:09:58;77256.22;;;-147.36;100.00
55113;BME280;41006;50.920;3.456;2023-09-30T01:10:32;77248.16;;;-147.36;100.00
55113;BME280;41006;50.920;3.456;2023-09-30T01:11:03;77244.09;;;-147.36;100.00
55113;BME280;41006;50.920;3.456;2023-09-30T01:11:33;77238.03;;;-147.36;100.00
55113;BME280;41006;50.920;3.456;2023-09-30T01:12:05;77238.03;;;-147.36;100.00
55113;BME280;41006;50.920;3.456;2023-09-30T01:12:38;77236.03;;;-147.36;100.00
55113;BME280;41006;50.920;3.456;2023-09-30T01:13:09;77236.03;;;-147.36;100.00
55113;BME280;41006;50.920;3.456;2023-09-30T01:13:41;77236.03;;;-147.36;100.00
55113;BME280;41006;50.920;3.456;2023-09-30T01:14:32;77234.00;;;-147.36;100.00
55113;BME280;41006;50.920;3.456;2023-09-30T01:15:10;77231.97;;;-147.36;100.00
55113;BME280;41006;50.920;3.456;2023-09-30T01:15:41;77229.97;;;-147.36;100.00
55113;BME280;41006;50.920;3.456;2023-09-30T01:16:14;77225.91;;;-147.36;100.00
55113;BME280;41006;50.920;3.456;2023-09-30T01:16:47;77221.88;;;-147.36;100.00
55113;BME280;41006;50.920;3.456;2023-09-30T01:17:17;77219.84;;;-147.36;100.00
55113;BME280;41006;50.920;3.456;2023-09-30T01:17:47;77213.78;;;-147.36;100.00
55113;BME280;41006;50.920;3.456;2023-09-30T01:18:20;77219.84;;;-147.36;100.00
55113;BME280;41006;50.920;3.456;2023-09-30T01:18:51;77223.91;;;-147.36;100.00
55113;BME280;41006;50.920;3.456;2023-09-30T01:19:22;77215.81;;;-147.36;100.00
55113;BME280;41006;50.920;3.456;2023-09-30T01:19:54;77240.06;;;-147.36;100.00
55113;BME280;41006;50.920;3.456;2023-09-30T01:20:25;77236.03;;;-147.36;100.00
55113;BME280;41006;50.920;3.456;2023-09-30T01:20:55;77225.91;;;-147.36;100.00
55113;BME280;41006;50.920;3.456;2023-09-30T01:21:29;77217.84;;;-147.36;100.00
55113;BME280;41006;50.920;3.456;2023-09-30T01:22:04;77242.09;;;-147.36;100.00
55113;BME280;41006;50.920;3.456;2023-09-30T01:22:35;77254.22;;;-147.36;100.00
55113;BME280;41006;50.920;3.456;2023-09-30T01:23:07;77252.19;;;-147.36;100.00
55113;BME280;41006;50.920;3.456;2023-09-30T01:23:42;77256.22;;;-147.36;100.00
55113;BME280;41006;50.920;3.456;2023-09-30T01:24:17;77254.22;;;-147.36;100.00
55113;BME280;41006;50.920;3.456;2023-09-30T01:24:47;77252.19;;;-147.36;100.00
55113;BME280;41006;50.920;3.456;2023-09-30T01:25:17;77256.22;;;-147.36;100.00
55113;BME280;41006;50.920;3.456;2023-09-30T01:25:47;77244.09;;;-147.36;100.00
55113;BME280;41006;50.920;3.456;2023-09-30T01:26:19;77246.13;;;-147.36;100.00
55113;BME280;41006;50.920;3.456;2023-09-30T01:26:49;77252.19;;;-147.36;100.00
55113;BME280;41006;50.920;3.456;2023-09-30T01:27:22;77246.13;;;-147.36;100.00
55113;BME280;41006;50.920;3.456;2023-09-30T01:27:53;77236.03;;;-147.36;100.00
55113;BME280;41006;50.920;3.456;2023-09-30T01:28:24;77248.16;;;-147.36;100.00
55113;BME280;41006;50.920;3.456;2023-09-30T01:28:54;77250.16;;;-147.36;100.00
55113;BME280;41006;50.920;3.456;2023-09-30T01:29:27;77252.19;;;-147.36;100.00
55113;BME280;41006;50.920;3.456;2023-09-30T01:30:00;77254.22;;;-147.36;100.00
55113;BME280;41006;50.920;3.456;2023-09-30T01:30:32;77250.16;;;-147.36;100.00
55113;BME280;41006;50.920;3.456;2023-09-30T01:31:03;77256.22;;;-147.36;100.00
55113;BME280;41006;50.920;3.456;2023-09-30T01:31:34;77256.22;;;-147.36;100.00
55113;BME280;41006;50.920;3.456;2023-09-30T01:32:06;77260.28;;;-147.36;100.00
55113;BME280;41006;50.920;3.456;2023-09-30T01:32:39;77254.22;;;-147.36;100.00
55113;BME280;41006;50.920;3.456;2023-09-30T01:33:09;77264.31;;;-147.36;100.00
55113;BME280;41006;50.920;3.456;2023-09-30T01:33:42;77260.28;;;-147.36;100.00
55113;BME280;41006;50.920;3.456;2023-09-30T01:34:17;77260.28;;;-147.36;100.00
55113;BME280;41006;50.920;3.456;2023-09-30T01:34:47;77254.22;;;-147.36;100.00
55113;BME280;41006;50.920;3.456;2023-09-30T01:35:17;77246.13;;;-147.36;100.00
55113;BME280;41006;50.920;3.456;2023-09-30T01:35:47;77236.03;;;-147.36;100.00
55113;BME280;41006;50.920;3.456;2023-09-30T01:36:20;77236.03;;;-147.36;100.00
55113;BME280;41006;50.920;3.456;2023-09-30T01:36:52;77242.09;;;-147.36;100.00
55113;BME280;41006;50.920;3.456;2023-09-30T01:37:26;77234.00;;;-147.36;100.00
55113;BME280;41006;50.920;3.456;2023-09-30T01:37:57;77221.88;;;-147.36;100.00
55113;BME280;41006;50.920;3.456;2023-09-30T01:38:27;77223.91;;;-147.36;100.00
55113;BME280;41006;50.920;3.456;2023-09-30T01:38:58;77225.91;;;-147.36;100.00
55113;BME280;41006;50.920;3.456;2023-09-30T01:39:28;77231.97;;;-147.36;100.00
55113;BME280;41006;50.920;3.456;2023-09-30T01:39:59;77238.03;;;-147.36;100.00
55113;BME280;41006;50.920;3.456;2023-09-30T01:40:36;77236.03;;;-147.36;100.00
55113;BME280;41006;50.920;3.456;2023-09-30T01:41:09;77223.91;;;-147.36;100.00
55113;BME280;41006;50.920;3.456;2023-09-30T01:41:40;77217.84;;;-147.36;100.00
55113;BME280;41006;50.920;3.456;2023-09-30T01:42:15;77211.78;;;-147.36;100.00
55113;BME280;41006;50.920;3.456;2023-09-30T01:42:45;77223.91;;;-147.36;100.00
55113;BME280;41006;50.920;3.456;2023-09-30T01:43:15;77211.78;;;-147.36;100.00
55113;BME280;41006;50.920;3.456;2023-09-30T01:43:46;77205.72;;;-147.36;100.00
55113;BME280;41006;50.920;3.456;2023-09-30T01:44:19;77209.75;;;-147.36;100.00
55113;BME280;41006;50.920;3.456;2023-09-30T01:44:49;77211.78;;;-147.36;100.00
55113;BME280;41006;50.920;3.456;2023-09-30T01:45:19;77223.91;;;-147.36;100.00
55113;BME280;41006;50.920;3.456;2023-09-30T01:45:52;77225.91;;;-147.36;100.00
55113;BME280;41006;50.920;3.456;2023-09-30T01:46:24;77223.91;;;-147.36;100.00
55113;BME280;41006;50.920;3.456;2023-09-30T01:46:55;77219.84;;;-147.36;100.00
55113;BME280;41006;50.920;3.456;2023-09-30T01:47:28;77217.84;;;-147.36;100.00
55113;BME280;41006;50.920;3.456;2023-09-30T01:48:01;77211.78;;;-147.36;100.00
55113;BME280;41006;50.920;3.456;2023-09-30T01:48:34;77211.78;;;-147.36;100.00
55113;BME280;41006;50.920;3.456;2023-09-30T01:49:07;77209.75;;;-147.36;100.00
55113;BME280;41006;50.920;3.456;2023-09-30T01:49:37;77207.72;;;-147.36;100.00
55113;BME280;41006;50.920;3.456;2023-09-30T01:50:07;77236.03;;;-147.36;100.00
55113;BME280;41006;50.920;3.456;2023-09-30T01:50:40;77244.09;;;-147.36;100.00
55113;BME280;41006;50.920;3.456;2023-09-30T01:51:10;77234.00;;;-147.36;100.00
55113;BME280;41006;50.920;3.456;2023-09-30T01:51:43;77236.03;;;-147.36;100.00
55113;BME280;41006;50.920;3.456;2023-09-30T01:52:15;77244.09;;;-147.36;100.00
55113;BME280;41006;50.920;3.456;2023-09-30T01:52:45;77258.25;;;-147.36;100.00
55113;BME280;41006;50.920;3.456;2023-09-30T01:53:18;77250.16;;;-147.36;100.00
55113;BME280;41006;50.920;3.456;2023-09-30T01:53:53;77238.03;;;-147.36;100.00
55113;BME280;41006;50.920;3.456;2023-09-30T01:54:23;77231.97;;;-147.36;100.00
55113;BME280;41006;50.920;3.456;2023-09-30T01:54:53;77229.97;;;-147.36;100.00
55113;BME280;41006;50.920;3.456;2023-09-30T01:55:26;77236.03;;;-147.36;100.00
55113;BME280;41006;50.920;3.456;2023-09-30T01:55:56;77227.94;;;-147.36;100.00
55113;BME280;41006;50.920;3.456;2023-09-30T01:56:26;77221.88;;;-147.36;100.00
55113;BME280;41006;50.920;3.456;2023-09-30T01:56:59;77223.91;;;-147.36;100.00
55113;BME280;41006;50.920;3.456;2023-09-30T01:57:29;77223.91;;;-147.36;100.00
55113;BME280;41006;50.920;3.456;2023-09-30T01:57:59;77231.97;;;-147.36;100.00
55113;BME280;41006;50.920;3.456;2023-09-30T01:58:30;77225.91;;;-147.36;100.00
55113;BME280;41006;50.920;3.456;2023-09-30T01:59:00;77225.91;;;-147.36;100.00
55113;BME280;41006;50.920;3.456;2023-09-30T01:59:33;77223.91;;;-147.36;100.00
55113;BME280;41006;50.920;3.456;2023-09-30T02:00:06;77242.09;;;-147.36;100.00
55113;BME280;41006;50.920;3.456;2023-09-30T02:00:41;77242.09;;;-147.36;100.00
55113;BME280;41006;50.920;3.456;2023-09-30T02:01:12;77246.13;;;-147.36;100.00
55113;BME280;41006;50.920;3.456;2023-09-30T02:01:42;77246.13;;;-147.36;100.00
55113;BME280;41006;50.920;3.456;2023-09-30T02:02:12;77248.16;;;-147.36;100.00
55113;BME280;41006;50.920;3.456;2023-09-30T02:02:42;77260.28;;;-147.36;100.00
55113;BME280;41006;50.920;3.456;2023-09-30T02:03:15;77256.22;;;-147.36;100.00
55113;BME280;41006;50.920;3.456;2023-09-30T02:03:48;77260.28;;;-147.36;100.00
55113;BME280;41006;50.920;3.456;2023-09-30T02:04:19;77262.28;;;-147.36;100.00
55113;BME280;41006;50.920;3.456;2023-09-30T02:04:49;77260.28;;;-147.36;100.00
55113;BME280;41006;50.920;3.456;2023-09-30T02:05:20;77252.19;;;-147.36;100.00
55113;BME280;41006;50.920;3.456;2023-09-30T02:05:52;77248.16;;;-147.36;100.00
55113;BME280;41006;50.920;3.456;2023-09-30T02:06:25;77252.19;;;-147.36;100.00
55113;BME280;41006;50.920;3.456;2023-09-30T02:06:58;77256.22;;;-147.36;100.00
55113;BME280;41006;50.920;3.456;2023-09-30T02:07:28;77248.16;;;-147.36;100.00
55113;BME280;41006;50.920;3.456;2023-09-30T02:08:01;77248.16;;;-147.36;100.00
55113;BME280;41006;50.920;3.456;2023-09-30T02:08:35;77246.13;;;-147.36;100.00
55113;BME280;41006;50.920;3.456;2023-09-30T02:09:08;77244.09;;;-147.36;100.00
55113;BME280;41006;50.920;3.456;2023-09-30T02:09:41;77238.03;;;-147.36;100.00
55113;BME280;41006;50.920;3.456;2023-09-30T02:10:14;77238.03;;;-147.36;100.00
55113;BME280;41006;50.920;3.456;2023-09-30T02:10:44;77236.03;;;-147.36;100.00
55113;BME280;41006;50.920;3.456;2023-09-30T02:11:17;77238.03;;;-147.36;100.00
55113;BME280;41006;50.920;3.456;2023-09-30T02:11:50;77238.03;;;-147.36;100.00
55113;BME280;41006;50.920;3.456;2023-09-30T02:12:20;77234.00;;;-147.36;100.00
55113;BME280;41006;50.920;3.456;2023-09-30T02:12:50;77234.00;;;-147.36;100.00
55113;BME280;41006;50.920;3.456;2023-09-30T02:13:23;77231.97;;;-147.36;100.00
55113;BME280;41006;50.920;3.456;2023-09-30T02:13:53;77236.03;;;-147.36;100.00
55113;BME280;41006;50.920;3.456;2023-09-30T02:14:23;77236.03;;;-147.36;100.00
55113;BME280;41006;50.920;3.456;2023-09-30T02:14:54;77236.03;;;-147.36;100.00
55113;BME280;41006;50.920;3.456;2023-09-30T02:15:24;77234.00;;;-147.36;100.00
55113;BME280;41006;50.920;3.456;2023-09-30T02:15:57;77240.06;;;-147.36;100.00
55113;BME280;41006;50.920;3.456;2023-09-30T02:16:30;77242.09;;;-147.36;100.00
55113;BME280;41006;50.920;3.456;2023-09-30T02:17:03;77240.06;;;-147.36;100.00
55113;BME280;41006;50.920;3.456;2023-09-30T02:17:34;77244.09;;;-147.36;100.00
55113;BME280;41006;50.920;3.456;2023-09-30T02:18:04;77238.03;;;-147.36;100.00
55113;BME280;41006;50.920;3.456;2023-09-30T02:18:35;77248.16;;;-147.36;100.00
55113;BME280;41006;50.920;3.456;2023-09-30T02:19:05;77252.19;;;-147.36;100.00
55113;BME280;41006;50.920;3.456;2023-09-30T02:19:36;77256.22;;;-147.36;100.00
55113;BME280;41006;50.920;3.456;2023-09-30T02:20:07;77264.31;;;-147.36;100.00
55113;BME280;41006;50.920;3.456;2023-09-30T02:20:42;77264.31;;;-147.36;100.00
55113;BME280;41006;50.920;3.456;2023-09-30T02:21:14;77272.41;;;-147.36;100.00
55113;BME280;41006;50.920;3.456;2023-09-30T02:21:47;77268.34;;;-147.36;100.00
55113;BME280;41006;50.920;3.456;2023-09-30T02:22:20;77266.34;;;-147.36;100.00
55113;BME280;41006;50.920;3.456;2023-09-30T02:22:50;77262.28;;;-147.36;100.00
55113;BME280;41006;50.920;3.456;2023-09-30T02:23:26;77266.34;;;-147.36;100.00
55113;BME280;41006;50.920;3.456;2023-09-30T02:23:56;77268.34;;;-147.36;100.00
55113;BME280;41006;50.920;3.456;2023-09-30T02:24:29;77268.34;;;-147.36;100.00
55113;BME280;41006;50.920;3.456;2023-09-30T02:24:59;77256.22;;;-147.36;100.00
55113;BME280;41006;50.920;3.456;2023-09-30T02:25:37;77268.34;;;-147.36;100.00
55113;BME280;41006;50.920;3.456;2023-09-30T02:26:12;77276.44;;;-147.36;100.00
55113;BME280;41006;50.920;3.456;2023-09-30T02:26:47;77272.41;;;-147.36;100.00
55113;BME280;41006;50.920;3.456;2023-09-30T02:27:17;77272.41;;;-147.36;100.00
55113;BME280;41006;50.920;3.456;2023-09-30T02:27:49;77264.31;;;-147.36;100.00
55113;BME280;41006;50.920;3.456;2023-09-30T02:28:21;77264.31;;;-147.36;100.00
55113;BME280;41006;50.920;3.456;2023-09-30T02:28:54;77262.28;;;-147.36;100.00
55113;BME280;41006;50.920;3.456;2023-09-30T02:29:24;77266.34;;;-147.36;100.00
55113;BME280;41006;50.920;3.456;2023-09-30T02:29:59;77264.31;;;-147.36;100.00
55113;BME280;41006;50.920;3.456;2023-09-30T02:30:33;77266.34;;;-147.36;100.00
55113;BME280;41006;50.920;3.456;2023-09-30T02:31:05;77266.34;;;-147.36;100.00
55113;BME280;41006;50.920;3.456;2023-09-30T02:31:38;77272.41;;;-147.36;100.00
55113;BME280;41006;50.920;3.456;2023-09-30T02:32:08;77264.31;;;-147.36;100.00
55113;BME280;41006;50.920;3.456;2023-09-30T02:32:42;77266.34;;;-147.36;100.00
55113;BME280;41006;50.920;3.456;2023-09-30T02:33:13;77268.34;;;-147.36;100.00
55113;BME280;41006;50.920;3.456;2023-09-30T02:33:46;77264.31;;;-147.36;100.00
55113;BME280;41006;50.920;3.456;2023-09-30T02:34:16;77274.41;;;-147.36;100.00
55113;BME280;41006;50.920;3.456;2023-09-30T02:34:49;77276.44;;;-147.36;100.00
55113;BME280;41006;50.920;3.456;2023-09-30T02:35:20;77282.50;;;-147.36;100.00
55113;BME280;41006;50.920;3.456;2023-09-30T02:35:53;77288.56;;;-147.36;100.00
55113;BME280;41006;50.920;3.456;2023-09-30T02:36:23;77294.63;;;-147.36;100.00
55113;BME280;41006;50.920;3.456;2023-09-30T02:36:57;77290.59;;;-147.36;100.00
55113;BME280;41006;50.920;3.456;2023-09-30T02:37:27;77308.78;;;-147.36;100.00
55113;BME280;41006;50.920;3.456;2023-09-30T02:38:00;77296.66;;;-147.36;100.00
55113;BME280;41006;50.920;3.456;2023-09-30T02:38:35;77302.72;;;-147.36;100.00
55113;BME280;41006;50.920;3.456;2023-09-30T02:39:09;77310.78;;;-147.36;100.00
55113;BME280;41006;50.920;3.456;2023-09-30T02:39:39;77312.81;;;-147.36;100.00
55113;BME280;41006;50.920;3.456;2023-09-30T02:40:09;77312.81;;;-147.36;100.00
55113;BME280;41006;50.920;3.456;2023-09-30T02:40:40;77314.84;;;-147.36;100.00
55113;BME280;41006;50.920;3.456;2023-09-30T02:41:12;77318.88;;;-147.36;100.00
55113;BME280;41006;50.920;3.456;2023-09-30T02:41:44;77302.72;;;-147.36;100.00
55113;BME280;41006;50.920;3.456;2023-09-30T02:42:15;77300.69;;;-147.36;100.00
55113;BME280;41006;50.920;3.456;2023-09-30T02:42:48;77300.69;;;-147.36;100.00